Aeroporto :
LOGIN :

Iscrizione | Disclaimer

   EN    FR    IT 

 










Sommario :    VFR   VFR Marginale   IFR   IFR Intensivo   IFR Molto Intensivo
Visibilità : 
Base nubi : 
>= 8 km
>= 3000ft
5 / 8 km
1000 / 3000 ft
1500m / 5 km
500 / 1000 ft
800 / 1500m
200 / 500 ft
< 800m
< 200 ft
Simboli :   Temporali  Nebbia  Neve Forte  Precipitazioni Forti  Vento > 20 kt
SIGMETs :   Varie  Temporali  Ghiacco  Turbolenza  Onda orograficha  Ceneri Vulcaniche






- Altitudine del aeroporto : 24 ft
- Codice IATA : AXD


LGAL - Dimokritos

ULTIMO METAR :
  • 061350Z 04011KT 9999 SCT025 11/08 Q1010

METARs OBSOLETI :
  • 061320Z 05009KT 9999 SCT025 11/08 Q1010
  • 061250Z 05009KT 9999 SCT025 11/08 Q1010
  • 061220Z 04012KT 9999 SCT025 11/08 Q1009
  • 061150Z 04012KT 9999 SCT025 11/08 Q1009
  • 061120Z 04013KT 9999 SCT025 11/08 Q1010
  • 061050Z 04013KT 9999 SCT025 11/08 Q1010
  • 061020Z 04014KT 9999 SCT025 11/07 Q1011
  • 060950Z 04014KT 9999 SCT025 11/07 Q1011
  • 060920Z 04014KT 9999 SCT025 10/08 Q1011
  • 060850Z 04014KT 9999 SCT025 10/08 Q1011

TAF TAF LGAL
Valido dal 06 a 12 ore il 06 a 21 ore UTC


061100Z 0612/0621 04018KT 9999 FEW015 BKN025
PROB40
TEMPO 0612/0620 5000 RA
PROB30
TEMPO 0612/0615 3000 TSRA SCT010 FEW015CB BKN020



MetMap, La meteo Aeronautica in un colpo d'occhio ! - Copyright ORBIFLY Dicembre 2007 - Disclaimer

ORBIFLY MET'MAP TEAM :

Programmazione e sviluppo : Alexandra Zaïnal
Concezione : Baudouin d'Aumeries
Supporto tecnico e logistico : Manuel Goepfert
Aiuto : Marc-Olivier Méhu
Aiuto per la traduzione : Arnaldo La Scala




FONTI E CREDITI :

   NOAA